createdAt,value
2022-07-30T00:00:47.373Z,12.20
2022-07-30T00:01:47.311Z,11.50
2022-07-30T00:02:47.427Z,12.40
2022-07-30T00:03:47.370Z,11.30
2022-07-30T00:04:47.365Z,11.50
2022-07-30T00:05:47.340Z,11.00
2022-07-30T00:06:47.208Z,11.40
2022-07-30T00:07:47.279Z,11.10
2022-07-30T00:08:47.220Z,11.80
2022-07-30T00:09:47.212Z,11.00
2022-07-30T00:10:47.171Z,11.00
2022-07-30T00:11:47.224Z,11.90
2022-07-30T00:12:47.177Z,11.50
2022-07-30T00:13:47.175Z,11.30
2022-07-30T00:14:47.215Z,12.00
2022-07-30T00:15:47.240Z,11.60
2022-07-30T00:16:47.270Z,11.80
2022-07-30T00:17:49.324Z,11.80
2022-07-30T00:18:47.166Z,12.20
2022-07-30T00:19:47.214Z,11.80
2022-07-30T00:20:47.184Z,11.40
2022-07-30T00:21:47.219Z,11.90
2022-07-30T00:22:47.230Z,12.90
2022-07-30T00:23:51.112Z,12.40
2022-07-30T00:24:48.115Z,12.20
2022-07-30T00:25:47.191Z,12.00
2022-07-30T00:26:47.137Z,11.80
2022-07-30T00:27:47.222Z,12.00
2022-07-30T00:28:47.174Z,11.90
2022-07-30T00:29:47.129Z,11.80
2022-07-30T00:30:47.188Z,12.70
2022-07-30T00:31:48.159Z,13.30
2022-07-30T00:32:47.141Z,14.10
2022-07-30T00:33:47.154Z,13.40
2022-07-30T00:34:47.099Z,13.00
2022-07-30T00:35:47.112Z,13.60
2022-07-30T00:36:47.080Z,12.90
2022-07-30T00:37:47.111Z,13.30
2022-07-30T00:38:47.114Z,12.00
2022-07-30T00:39:47.090Z,12.00
2022-07-30T00:40:47.058Z,11.00
2022-07-30T00:41:46.987Z,11.00
2022-07-30T00:42:47.022Z,11.10
2022-07-30T00:43:47.074Z,11.20
2022-07-30T00:44:47.100Z,10.40
2022-07-30T00:45:47.044Z,12.00
2022-07-30T00:46:47.077Z,11.70
2022-07-30T00:47:47.048Z,12.40
2022-07-30T00:48:47.131Z,12.30
2022-07-30T00:49:46.987Z,12.30
2022-07-30T00:50:47.005Z,13.20
2022-07-30T00:51:46.959Z,14.30
2022-07-30T00:52:46.929Z,14.70
2022-07-30T00:53:46.861Z,14.70
2022-07-30T00:54:59.728Z,14.70
2022-07-30T00:55:46.860Z,14.60
2022-07-30T00:56:46.874Z,15.30
2022-07-30T00:57:46.927Z,14.80
2022-07-30T00:58:46.830Z,14.00
2022-07-30T00:59:46.896Z,15.40
2022-07-30T01:00:46.995Z,14.40
2022-07-30T01:01:46.958Z,13.80
2022-07-30T01:02:46.933Z,14.30
2022-07-30T01:03:46.914Z,14.30
2022-07-30T01:04:46.913Z,13.90
2022-07-30T01:05:46.944Z,14.40
2022-07-30T01:06:46.839Z,14.10
2022-07-30T01:07:46.890Z,13.70
2022-07-30T01:08:46.825Z,14.30
2022-07-30T01:09:48.534Z,14.30
2022-07-30T01:10:46.861Z,15.10
2022-07-30T01:11:46.891Z,15.70
2022-07-30T01:12:46.837Z,15.40
2022-07-30T01:13:46.828Z,16.30
2022-07-30T01:14:46.783Z,17.10
2022-07-30T01:15:46.827Z,17.50
2022-07-30T01:16:46.846Z,17.60
2022-07-30T01:17:46.767Z,18.10
2022-07-30T01:18:47.776Z,18.20
2022-07-30T01:19:46.781Z,17.90
2022-07-30T01:21:53.357Z,18.80
2022-07-30T01:22:54.583Z,18.60
2022-07-30T01:23:54.566Z,18.80
2022-07-30T01:24:54.536Z,18.30
2022-07-30T01:25:55.695Z,18.10
2022-07-30T01:26:54.558Z,17.80
2022-07-30T01:27:54.612Z,16.70
2022-07-30T01:28:54.569Z,17.20
2022-07-30T01:29:54.620Z,16.40
2022-07-30T01:30:54.522Z,16.30
2022-07-30T01:31:54.485Z,16.50
2022-07-30T01:32:55.472Z,15.90
2022-07-30T01:33:55.403Z,15.90
2022-07-30T01:34:54.408Z,16.10
2022-07-30T01:35:54.437Z,15.50
2022-07-30T01:36:54.417Z,15.10
2022-07-30T01:37:54.437Z,15.40
2022-07-30T01:38:54.415Z,15.30
2022-07-30T01:39:54.430Z,16.10
2022-07-30T01:40:54.447Z,16.00
2022-07-30T01:41:54.378Z,16.10
2022-07-30T01:42:54.487Z,15.30
2022-07-30T01:43:54.440Z,15.30
2022-07-30T01:44:54.398Z,16.20
2022-07-30T01:45:54.474Z,16.40
2022-07-30T01:46:54.421Z,16.30
2022-07-30T01:47:54.385Z,16.40
2022-07-30T01:48:54.521Z,15.60
2022-07-30T01:49:54.386Z,17.30
2022-07-30T01:50:54.415Z,18.80
2022-07-30T01:51:54.364Z,18.70
2022-07-30T01:52:54.432Z,19.50
2022-07-30T01:53:54.411Z,18.20
2022-07-30T01:54:54.415Z,17.20
2022-07-30T01:55:54.342Z,16.80
2022-07-30T01:56:54.353Z,15.10
2022-07-30T01:57:54.340Z,14.90
2022-07-30T01:58:54.319Z,13.80
2022-07-30T01:59:54.330Z,14.50
2022-07-30T02:00:54.386Z,13.70
2022-07-30T02:01:54.328Z,15.20
2022-07-30T02:02:54.319Z,14.20
2022-07-30T02:03:54.384Z,15.70
2022-07-30T02:04:54.270Z,16.30
2022-07-30T02:05:54.284Z,16.60
2022-07-30T02:06:54.269Z,17.10
2022-07-30T02:07:54.254Z,17.60
2022-07-30T02:08:54.227Z,17.70
2022-07-30T02:09:54.243Z,16.90
2022-07-30T02:10:54.386Z,16.90
2022-07-30T02:11:54.159Z,18.00
2022-07-30T02:12:54.127Z,17.20
2022-07-30T02:13:54.149Z,17.80
2022-07-30T02:14:54.135Z,18.10
2022-07-30T02:15:54.142Z,17.70
2022-07-30T02:16:54.090Z,17.80
2022-07-30T02:17:54.256Z,18.20
2022-07-30T02:18:54.094Z,18.90
2022-07-30T02:19:54.200Z,20.00
2022-07-30T02:20:54.155Z,20.60
2022-07-30T02:21:54.144Z,19.70
2022-07-30T02:22:54.165Z,19.70
2022-07-30T02:23:54.137Z,19.80
2022-07-30T02:24:54.144Z,19.60
2022-07-30T02:25:54.149Z,19.50
2022-07-30T02:26:54.106Z,19.70
2022-07-30T02:27:54.097Z,19.10
2022-07-30T02:28:54.095Z,18.70
2022-07-30T02:29:54.119Z,18.50
2022-07-30T02:30:54.117Z,19.70
2022-07-30T02:31:54.125Z,18.90
2022-07-30T02:32:54.089Z,17.70
2022-07-30T02:33:54.077Z,17.60
2022-07-30T02:34:54.095Z,18.30
2022-07-30T02:35:54.233Z,17.60
2022-07-30T02:36:54.065Z,17.60
2022-07-30T02:37:54.048Z,18.00
2022-07-30T02:38:54.101Z,17.70
2022-07-30T02:39:53.973Z,17.50
2022-07-30T02:40:53.957Z,18.30
2022-07-30T02:41:53.965Z,15.50
2022-07-30T02:42:53.917Z,16.70
2022-07-30T02:43:53.908Z,16.90
2022-07-30T02:44:53.926Z,16.00
2022-07-30T02:45:53.933Z,15.40
2022-07-30T02:46:53.962Z,14.80
2022-07-30T02:47:53.942Z,15.30
2022-07-30T02:48:53.943Z,14.50
2022-07-30T02:49:53.895Z,14.80
2022-07-30T02:50:53.938Z,14.80
2022-07-30T02:51:53.970Z,15.30
2022-07-30T02:52:53.919Z,15.50
2022-07-30T02:53:53.930Z,16.30
2022-07-30T02:54:53.915Z,16.70
2022-07-30T02:55:53.922Z,15.70
2022-07-30T02:56:53.936Z,16.30
2022-07-30T02:57:53.999Z,16.20
2022-07-30T02:58:53.860Z,15.90
2022-07-30T02:59:53.930Z,16.20
2022-07-30T03:00:53.907Z,16.40
2022-07-30T03:01:53.980Z,16.10
2022-07-30T03:02:56.692Z,15.40
2022-07-30T03:03:53.937Z,14.90
2022-07-30T03:04:53.857Z,15.00
2022-07-30T03:05:53.861Z,16.60
2022-07-30T03:06:53.860Z,15.70
2022-07-30T03:07:53.855Z,16.50
2022-07-30T03:08:53.821Z,16.50
2022-07-30T03:09:53.811Z,17.30
2022-07-30T03:10:53.738Z,19.00
2022-07-30T03:11:53.732Z,19.90
2022-07-30T03:12:53.710Z,20.20
2022-07-30T03:13:53.742Z,20.60
2022-07-30T03:14:53.722Z,20.50
2022-07-30T03:15:53.707Z,20.60
2022-07-30T03:16:53.697Z,22.00
2022-07-30T03:17:53.754Z,20.80
2022-07-30T03:18:53.743Z,20.90
2022-07-30T03:19:53.747Z,21.10
2022-07-30T03:20:53.759Z,20.10
2022-07-30T03:21:53.732Z,20.10
2022-07-30T03:22:53.810Z,19.70
2022-07-30T03:23:53.767Z,18.90
2022-07-30T03:24:53.775Z,19.50
2022-07-30T03:25:54.586Z,18.80
2022-07-30T03:26:53.793Z,18.60
2022-07-30T03:27:53.701Z,19.00
2022-07-30T03:28:53.708Z,18.30
2022-07-30T03:29:54.555Z,17.30
2022-07-30T03:30:53.732Z,19.40
2022-07-30T03:31:53.747Z,18.80
2022-07-30T03:32:53.660Z,16.80
2022-07-30T03:33:53.670Z,15.90
2022-07-30T03:34:53.685Z,16.10
2022-07-30T03:35:53.603Z,17.00
2022-07-30T03:36:53.641Z,18.00
2022-07-30T03:37:53.622Z,17.60
2022-07-30T03:38:53.632Z,18.30
2022-07-30T03:39:53.991Z,18.80
2022-07-30T03:40:53.533Z,18.60
2022-07-30T03:41:53.538Z,19.70
2022-07-30T03:42:53.505Z,19.30
2022-07-30T03:43:53.519Z,19.10
2022-07-30T03:44:53.545Z,19.40
2022-07-30T03:45:53.485Z,19.20
2022-07-30T03:46:53.637Z,19.50
2022-07-30T03:47:53.500Z,18.90
2022-07-30T03:48:53.523Z,17.90
2022-07-30T03:49:54.576Z,20.00
2022-07-30T03:50:53.482Z,17.70
2022-07-30T03:51:53.519Z,16.80
2022-07-30T03:52:53.520Z,16.90
2022-07-30T03:53:53.516Z,14.70
2022-07-30T03:54:53.532Z,14.40
2022-07-30T03:55:53.589Z,13.70
2022-07-30T03:56:53.518Z,14.50
2022-07-30T03:57:53.396Z,15.80
2022-07-30T03:58:53.461Z,16.80
2022-07-30T03:59:53.477Z,16.60
2022-07-30T04:00:53.486Z,15.50
2022-07-30T04:01:53.564Z,15.50
2022-07-30T04:02:53.431Z,15.80
2022-07-30T04:03:53.500Z,17.00
2022-07-30T04:04:53.456Z,17.50
2022-07-30T04:05:53.465Z,18.20
2022-07-30T04:06:53.459Z,16.30
2022-07-30T04:07:53.416Z,16.60
2022-07-30T04:08:53.438Z,16.30
2022-07-30T04:09:53.404Z,16.20
2022-07-30T04:10:53.462Z,15.90
2022-07-30T04:11:53.400Z,17.60
2022-07-30T04:12:53.460Z,18.90
2022-07-30T04:13:53.376Z,19.60
2022-07-30T04:14:53.368Z,19.50
2022-07-30T04:16:35.571Z,18.30
2022-07-30T04:16:54.383Z,19.30
2022-07-30T04:17:53.270Z,20.00
2022-07-30T04:18:53.253Z,20.60
2022-07-30T04:19:53.300Z,20.90
2022-07-30T04:20:53.251Z,18.10
2022-07-30T04:21:53.323Z,17.60
2022-07-30T04:22:53.329Z,17.60
2022-07-30T04:24:03.773Z,15.70
2022-07-30T04:24:54.239Z,16.30
2022-07-30T04:25:53.303Z,16.80
2022-07-30T04:26:53.326Z,15.30
2022-07-30T04:28:03.173Z,14.60
2022-07-30T04:28:54.224Z,13.90
2022-07-30T04:29:53.291Z,13.30
2022-07-30T04:30:53.274Z,13.40
2022-07-30T04:31:53.285Z,13.40
2022-07-30T04:32:53.281Z,13.10
2022-07-30T04:33:53.314Z,13.00
2022-07-30T04:34:53.264Z,13.30
2022-07-30T04:35:53.318Z,13.40
2022-07-30T04:36:53.227Z,14.40
2022-07-30T04:37:53.225Z,15.40
2022-07-30T04:38:53.192Z,15.00
2022-07-30T04:39:54.138Z,16.00
2022-07-30T04:40:53.203Z,15.80
2022-07-30T04:41:53.114Z,16.20
2022-07-30T04:42:53.290Z,16.10
2022-07-30T04:43:53.156Z,14.60
2022-07-30T04:44:53.156Z,15.90
2022-07-30T04:45:53.149Z,15.70
2022-07-30T04:46:53.188Z,15.10
2022-07-30T04:47:53.123Z,14.60
2022-07-30T04:48:54.200Z,14.80
2022-07-30T04:49:53.101Z,15.40
2022-07-30T04:50:53.123Z,15.40
2022-07-30T04:51:53.109Z,15.90
2022-07-30T04:52:53.147Z,16.00
2022-07-30T04:53:53.118Z,15.50
2022-07-30T04:54:53.140Z,16.20
2022-07-30T04:55:53.054Z,15.80
2022-07-30T04:56:53.967Z,15.00
2022-07-30T04:57:53.080Z,15.90
2022-07-30T04:58:53.196Z,16.20
2022-07-30T04:59:53.041Z,15.60
2022-07-30T05:00:53.051Z,14.80
2022-07-30T05:01:53.072Z,15.50
2022-07-30T05:02:54.108Z,14.70
2022-07-30T05:03:52.962Z,13.60
2022-07-30T05:04:53.034Z,14.50
2022-07-30T05:05:57.099Z,13.70
2022-07-30T05:06:53.947Z,14.90
2022-07-30T05:07:52.944Z,14.60
2022-07-30T05:08:52.947Z,15.00
2022-07-30T05:09:52.939Z,14.90
2022-07-30T05:10:53.304Z,13.80
2022-07-30T05:11:52.882Z,14.60
2022-07-30T05:12:52.920Z,14.60
2022-07-30T05:13:52.904Z,14.10
2022-07-30T05:14:52.905Z,13.90
2022-07-30T05:15:52.970Z,14.10
2022-07-30T05:16:52.899Z,14.00
2022-07-30T05:17:52.858Z,12.80
2022-07-30T05:18:52.870Z,13.20
2022-07-30T05:19:53.017Z,12.40
2022-07-30T05:20:52.907Z,12.40
2022-07-30T05:21:52.982Z,12.90
2022-07-30T05:22:52.921Z,12.30
2022-07-30T05:23:52.910Z,12.20
2022-07-30T05:24:52.920Z,12.30
2022-07-30T05:25:52.904Z,11.50
2022-07-30T05:26:52.864Z,12.00
2022-07-30T05:27:52.855Z,11.30
2022-07-30T05:28:56.670Z,11.20
2022-07-30T05:29:53.798Z,11.90
2022-07-30T05:30:52.904Z,11.80
2022-07-30T05:31:52.807Z,12.10
2022-07-30T05:32:52.808Z,12.40
2022-07-30T05:33:52.845Z,12.20
2022-07-30T05:34:52.815Z,12.50
2022-07-30T05:35:52.861Z,13.50
2022-07-30T05:36:52.725Z,13.00
2022-07-30T05:37:52.757Z,13.70
2022-07-30T05:38:53.836Z,13.20
2022-07-30T05:39:57.337Z,13.10
2022-07-30T05:40:53.859Z,13.20
2022-07-30T05:41:52.700Z,13.30
2022-07-30T05:42:52.837Z,12.80
2022-07-30T05:43:56.025Z,13.40
2022-07-30T05:44:52.831Z,13.00
2022-07-30T05:45:52.777Z,12.00
2022-07-30T05:46:52.749Z,12.10
2022-07-30T05:47:52.711Z,12.50
2022-07-30T05:48:52.802Z,12.70
2022-07-30T05:49:52.685Z,12.30
2022-07-30T05:50:52.682Z,12.10
2022-07-30T05:51:52.718Z,12.10
2022-07-30T05:52:52.673Z,12.40
2022-07-30T05:53:52.683Z,13.00
2022-07-30T05:54:52.677Z,11.30
2022-07-30T05:55:52.680Z,12.40
2022-07-30T05:56:52.687Z,11.80
2022-07-30T05:57:52.611Z,11.60
2022-07-30T05:58:52.572Z,12.20
2022-07-30T05:59:52.568Z,11.30
2022-07-30T06:00:52.553Z,11.30
2022-07-30T06:01:52.599Z,12.30
2022-07-30T06:02:52.578Z,11.70
2022-07-30T06:03:52.523Z,11.30
2022-07-30T06:04:53.588Z,11.30
2022-07-30T06:05:52.518Z,12.10
2022-07-30T06:06:52.545Z,11.40
2022-07-30T06:07:52.575Z,11.80
2022-07-30T06:08:52.508Z,12.00
2022-07-30T06:09:52.514Z,12.00
2022-07-30T06:10:52.587Z,12.50
2022-07-30T06:11:52.466Z,12.70
2022-07-30T06:12:53.550Z,13.30
2022-07-30T06:13:52.468Z,12.30
2022-07-30T06:14:52.479Z,12.00
2022-07-30T06:15:52.548Z,13.00
2022-07-30T06:16:52.474Z,12.90
2022-07-30T06:17:58.231Z,12.00
2022-07-30T06:18:53.478Z,12.30
2022-07-30T06:19:52.448Z,12.40
2022-07-30T06:20:52.527Z,12.30
2022-07-30T06:22:06.345Z,13.20
2022-07-30T06:22:53.408Z,13.20
2022-07-30T06:23:52.541Z,12.80
2022-07-30T06:24:52.488Z,12.00
2022-07-30T06:25:52.479Z,12.30
2022-07-30T06:26:52.521Z,14.10
2022-07-30T06:27:52.422Z,12.10
2022-07-30T06:28:52.522Z,11.70
2022-07-30T06:29:52.411Z,11.70
2022-07-30T06:30:52.510Z,12.00
2022-07-30T06:31:52.406Z,12.70
2022-07-30T06:32:52.413Z,12.00
2022-07-30T06:33:52.394Z,11.90
2022-07-30T06:35:01.072Z,11.40
2022-07-30T06:35:54.370Z,11.10
2022-07-30T06:36:52.376Z,11.10
2022-07-30T06:38:00.536Z,11.30
2022-07-30T06:38:53.292Z,10.90
2022-07-30T06:39:55.955Z,11.00
2022-07-30T06:40:52.367Z,10.50
2022-07-30T06:41:52.344Z,11.10
2022-07-30T06:42:52.339Z,10.70
2022-07-30T06:43:52.381Z,11.30
2022-07-30T06:44:52.392Z,10.80
2022-07-30T06:45:52.364Z,11.00
2022-07-30T06:46:52.322Z,11.10
2022-07-30T06:47:52.312Z,11.00
2022-07-30T06:48:52.442Z,10.30
2022-07-30T06:49:52.762Z,11.80
2022-07-30T06:50:52.309Z,10.60
2022-07-30T06:51:52.323Z,10.50
2022-07-30T06:52:52.292Z,11.00
2022-07-30T06:53:52.168Z,11.80
2022-07-30T06:54:52.231Z,11.40
2022-07-30T06:55:54.438Z,11.80
2022-07-30T06:56:53.187Z,11.10
2022-07-30T06:57:52.208Z,11.50
2022-07-30T06:58:52.184Z,10.90
2022-07-30T06:59:56.688Z,11.10
2022-07-30T07:00:53.208Z,11.40
2022-07-30T07:01:52.141Z,11.80
2022-07-30T07:02:52.142Z,11.00
2022-07-30T07:03:52.133Z,10.80
2022-07-30T07:04:52.123Z,11.80
2022-07-30T07:05:52.128Z,12.40
2022-07-30T07:06:52.192Z,12.30
2022-07-30T07:07:59.303Z,11.80
2022-07-30T07:08:54.107Z,11.60
2022-07-30T07:09:52.094Z,11.60
2022-07-30T07:10:52.229Z,11.80
2022-07-30T07:11:52.148Z,10.90
2022-07-30T07:12:52.157Z,11.60
2022-07-30T07:13:52.133Z,11.30
2022-07-30T07:14:52.192Z,11.40
2022-07-30T07:15:52.104Z,11.10
2022-07-30T07:16:52.198Z,11.30
2022-07-30T07:17:52.141Z,11.00
2022-07-30T07:18:52.202Z,11.50
2022-07-30T07:19:59.918Z,11.20
2022-07-30T07:20:53.038Z,11.50
2022-07-30T07:21:52.108Z,11.30
2022-07-30T07:22:52.164Z,11.20
2022-07-30T07:23:52.041Z,11.30
2022-07-30T07:24:52.039Z,10.40
2022-07-30T07:25:52.098Z,10.70
2022-07-30T07:26:52.099Z,10.40
2022-07-30T07:28:12.870Z,11.20
2022-07-30T07:28:52.961Z,10.90
2022-07-30T07:30:01.336Z,11.10
2022-07-30T07:30:53.054Z,11.10
2022-07-30T07:32:06.359Z,10.80
2022-07-30T07:32:52.952Z,10.40
2022-07-30T07:33:51.992Z,10.50
2022-07-30T07:34:51.997Z,11.00
2022-07-30T07:35:51.981Z,11.20
2022-07-30T07:36:51.992Z,10.90
2022-07-30T07:37:52.066Z,11.20
2022-07-30T07:38:51.942Z,11.90
2022-07-30T07:39:52.050Z,11.30
2022-07-30T07:40:51.947Z,11.60
2022-07-30T07:41:51.880Z,11.70
2022-07-30T07:42:52.004Z,11.90
2022-07-30T07:43:52.008Z,12.10
2022-07-30T07:44:51.920Z,11.80
2022-07-30T07:45:52.098Z,11.80
2022-07-30T07:46:51.913Z,11.10
2022-07-30T07:47:53.214Z,11.50
2022-07-30T07:48:51.996Z,11.60
2022-07-30T07:49:51.912Z,12.00
2022-07-30T07:50:51.912Z,11.10
2022-07-30T07:51:51.886Z,10.80
2022-07-30T07:52:51.868Z,11.80
2022-07-30T07:54:18.623Z,12.10
2022-07-30T07:54:53.780Z,11.50
2022-07-30T07:55:51.868Z,11.90
2022-07-30T07:56:53.044Z,11.90
2022-07-30T07:57:51.838Z,12.00
2022-07-30T07:58:56.320Z,11.80
2022-07-30T07:59:52.980Z,11.40
2022-07-30T08:00:51.910Z,12.00
2022-07-30T08:01:51.802Z,11.90
2022-07-30T08:02:51.968Z,11.80
2022-07-30T08:03:51.800Z,12.00
2022-07-30T08:04:51.895Z,11.90
2022-07-30T08:06:02.005Z,11.80
2022-07-30T08:06:52.930Z,11.90
2022-07-30T08:07:51.776Z,11.00
2022-07-30T08:08:51.870Z,11.20
2022-07-30T08:09:51.788Z,11.00
2022-07-30T08:10:51.727Z,11.30
2022-07-30T08:11:51.754Z,11.20
2022-07-30T08:12:51.746Z,11.40
2022-07-30T08:13:53.135Z,11.80
2022-07-30T08:14:51.777Z,11.30
2022-07-30T08:15:51.655Z,11.10
2022-07-30T08:16:51.672Z,10.90
2022-07-30T08:17:51.602Z,10.60
2022-07-30T08:18:51.587Z,10.20
2022-07-30T08:19:51.657Z,11.10
2022-07-30T08:20:51.662Z,10.60
2022-07-30T08:21:51.610Z,9.80
2022-07-30T08:22:51.616Z,9.80
2022-07-30T08:23:51.559Z,10.10
2022-07-30T08:24:51.542Z,10.50
2022-07-30T08:25:51.624Z,9.50
2022-07-30T08:26:52.516Z,9.20
2022-07-30T08:27:52.651Z,9.50
2022-07-30T08:28:51.568Z,9.70
2022-07-30T08:29:51.504Z,9.60
2022-07-30T08:30:51.692Z,9.60
2022-07-30T08:31:51.576Z,10.10
2022-07-30T08:32:51.570Z,9.30
2022-07-30T08:33:51.550Z,9.60
2022-07-30T08:34:51.548Z,10.00
2022-07-30T08:35:52.830Z,9.60
2022-07-30T08:36:52.512Z,10.20
2022-07-30T08:37:51.573Z,10.00
2022-07-30T08:38:51.584Z,9.70
2022-07-30T08:39:51.555Z,9.50
2022-07-30T08:40:51.540Z,9.10
2022-07-30T08:41:51.500Z,9.40
2022-07-30T08:42:51.508Z,9.80
2022-07-30T08:43:51.514Z,9.70
2022-07-30T08:44:51.517Z,9.90
2022-07-30T08:45:51.527Z,10.00
2022-07-30T08:46:51.590Z,9.00
2022-07-30T08:47:51.494Z,9.10
2022-07-30T08:48:51.572Z,9.40
2022-07-30T08:49:51.484Z,9.00
2022-07-30T08:50:51.582Z,8.40
2022-07-30T08:51:51.462Z,8.00
2022-07-30T08:52:51.584Z,8.30
2022-07-30T08:53:51.433Z,8.10
2022-07-30T08:54:51.564Z,7.70
2022-07-30T08:55:54.521Z,7.40
2022-07-30T08:56:52.444Z,7.40
2022-07-30T08:57:51.725Z,7.60
2022-07-30T08:58:51.396Z,7.60
2022-07-30T08:59:59.525Z,7.80
2022-07-30T09:00:52.453Z,7.50
2022-07-30T09:01:51.374Z,7.90
2022-07-30T09:02:51.381Z,7.10
2022-07-30T09:03:51.351Z,7.00
2022-07-30T09:04:51.353Z,6.80
2022-07-30T09:05:51.339Z,6.70
2022-07-30T09:06:51.327Z,6.80
2022-07-30T09:07:51.322Z,7.00
2022-07-30T09:08:51.359Z,7.10
2022-07-30T09:09:51.352Z,6.80
2022-07-30T09:10:53.054Z,6.60
2022-07-30T09:11:51.405Z,6.80
2022-07-30T09:12:51.305Z,6.90
2022-07-30T09:13:51.431Z,6.70
2022-07-30T09:14:51.307Z,7.00
2022-07-30T09:15:51.366Z,6.90
2022-07-30T09:16:51.202Z,7.20
2022-07-30T09:17:51.177Z,7.20
2022-07-30T09:18:51.197Z,6.90
2022-07-30T09:19:51.136Z,6.90
2022-07-30T09:20:51.160Z,7.10
2022-07-30T09:21:51.100Z,8.20
2022-07-30T09:22:51.121Z,8.00
2022-07-30T09:23:51.276Z,7.70
2022-07-30T09:24:52.153Z,8.60
2022-07-30T09:25:51.130Z,8.10
2022-07-30T09:26:51.130Z,7.70
2022-07-30T09:27:51.106Z,7.40
2022-07-30T09:28:51.171Z,7.90
2022-07-30T09:29:51.207Z,8.00
2022-07-30T09:30:51.155Z,7.30
2022-07-30T09:31:51.155Z,8.30
2022-07-30T09:32:51.203Z,8.10
2022-07-30T09:33:51.161Z,8.10
2022-07-30T09:34:51.215Z,8.50
2022-07-30T09:35:51.149Z,8.30
2022-07-30T09:36:51.246Z,8.50
2022-07-30T09:37:51.134Z,8.10
2022-07-30T09:38:51.220Z,7.80
2022-07-30T09:39:56.282Z,8.40
2022-07-30T09:40:57.319Z,8.60
2022-07-30T09:41:52.040Z,8.80
2022-07-30T09:42:51.125Z,8.30
2022-07-30T09:43:51.080Z,8.20
2022-07-30T09:44:51.060Z,8.40
2022-07-30T09:45:56.878Z,8.20
2022-07-30T09:46:53.068Z,7.90
2022-07-30T09:47:51.044Z,7.60
2022-07-30T09:48:51.090Z,8.00
2022-07-30T09:49:51.047Z,7.40
2022-07-30T09:50:51.134Z,7.00
2022-07-30T09:52:06.541Z,7.90
2022-07-30T09:52:51.973Z,7.40
2022-07-30T09:53:51.122Z,6.80
2022-07-30T09:54:52.766Z,7.40
2022-07-30T09:55:51.161Z,7.30
2022-07-30T09:56:53.656Z,7.70
2022-07-30T09:57:53.106Z,7.50
2022-07-30T09:58:52.072Z,7.70
2022-07-30T09:59:51.102Z,8.10
2022-07-30T10:00:51.054Z,7.20
2022-07-30T10:01:55.036Z,7.00
2022-07-30T10:02:53.009Z,6.80
2022-07-30T10:03:50.987Z,6.50
2022-07-30T10:04:51.008Z,6.80
2022-07-30T10:05:50.955Z,6.80
2022-07-30T10:06:50.972Z,7.40
2022-07-30T10:07:51.069Z,7.40
2022-07-30T10:08:50.933Z,7.20
2022-07-30T10:09:50.968Z,7.60
2022-07-30T10:10:51.139Z,7.50
2022-07-30T10:11:50.988Z,6.40
2022-07-30T10:12:50.972Z,6.60
2022-07-30T10:13:50.923Z,6.10
2022-07-30T10:14:51.009Z,6.40
2022-07-30T10:15:50.909Z,6.60
2022-07-30T10:16:50.903Z,6.60
2022-07-30T10:17:50.873Z,6.70
2022-07-30T10:18:50.780Z,6.50
2022-07-30T10:19:51.762Z,7.10
2022-07-30T10:20:50.790Z,7.10
2022-07-30T10:21:50.767Z,6.20
2022-07-30T10:22:54.412Z,7.10
2022-07-30T10:23:50.892Z,6.50
2022-07-30T10:24:50.843Z,6.30
2022-07-30T10:25:55.049Z,6.30
2022-07-30T10:26:50.824Z,5.90
2022-07-30T10:27:50.854Z,6.30
2022-07-30T10:28:51.761Z,6.30
2022-07-30T10:29:50.706Z,6.30
2022-07-30T10:30:50.789Z,6.10
2022-07-30T10:31:54.213Z,6.50
2022-07-30T10:32:52.372Z,6.40
2022-07-30T10:33:50.829Z,6.90
2022-07-30T10:34:50.800Z,6.40
2022-07-30T10:35:50.752Z,7.00
2022-07-30T10:36:50.745Z,7.00
2022-07-30T10:37:50.725Z,6.50
2022-07-30T10:38:53.970Z,6.90
2022-07-30T10:39:50.787Z,6.80
2022-07-30T10:40:50.731Z,6.40
2022-07-30T10:41:53.841Z,6.80
2022-07-30T10:42:50.714Z,6.40
2022-07-30T10:43:50.788Z,6.10
2022-07-30T10:44:50.684Z,6.10
2022-07-30T10:45:51.529Z,6.70
2022-07-30T10:46:50.689Z,6.70
2022-07-30T10:47:50.906Z,6.80
2022-07-30T10:48:51.008Z,7.40
2022-07-30T10:49:50.689Z,7.10
2022-07-30T10:50:50.646Z,6.70
2022-07-30T10:51:50.665Z,6.50
2022-07-30T10:52:50.668Z,6.60
2022-07-30T10:53:50.661Z,7.40
2022-07-30T10:54:50.733Z,6.60
2022-07-30T10:55:50.645Z,6.30
2022-07-30T10:56:50.638Z,6.50
2022-07-30T10:57:50.536Z,6.20
2022-07-30T10:58:50.538Z,6.70
2022-07-30T10:59:50.685Z,6.90
2022-07-30T11:00:50.561Z,6.50
2022-07-30T11:01:53.316Z,6.00
2022-07-30T11:02:51.498Z,6.20
2022-07-30T11:03:50.464Z,6.40
2022-07-30T11:04:50.503Z,5.90
2022-07-30T11:05:50.510Z,5.70
2022-07-30T11:06:50.461Z,5.80
2022-07-30T11:07:50.467Z,5.70
2022-07-30T11:08:50.463Z,5.70
2022-07-30T11:10:05.575Z,5.50
2022-07-30T11:10:51.546Z,5.40
2022-07-30T11:12:05.418Z,5.70
2022-07-30T11:12:52.783Z,5.60
2022-07-30T11:13:50.421Z,5.50
2022-07-30T11:14:50.504Z,5.20
2022-07-30T11:15:50.508Z,5.60
2022-07-30T11:16:50.501Z,5.30
2022-07-30T11:17:50.422Z,4.70
2022-07-30T11:18:51.093Z,5.10
2022-07-30T11:20:01.645Z,5.50
2022-07-30T11:20:52.486Z,5.20
2022-07-30T11:21:50.469Z,5.00
2022-07-30T11:22:51.025Z,5.10
2022-07-30T11:23:54.977Z,5.10
2022-07-30T11:24:51.451Z,4.90
2022-07-30T11:25:54.687Z,5.10
2022-07-30T11:26:50.489Z,4.40
2022-07-30T11:27:50.473Z,4.90
2022-07-30T11:28:50.417Z,4.40
2022-07-30T11:29:51.650Z,4.90
2022-07-30T11:31:22.460Z,4.70
2022-07-30T11:31:56.591Z,4.40
2022-07-30T11:32:51.522Z,4.50
2022-07-30T11:33:50.455Z,4.80
2022-07-30T11:34:50.359Z,4.90
2022-07-30T11:35:50.529Z,4.90
2022-07-30T11:36:50.358Z,4.60
2022-07-30T11:37:52.308Z,4.90
2022-07-30T11:38:50.335Z,4.50
2022-07-30T11:39:50.268Z,5.00
2022-07-30T11:40:50.334Z,4.50
2022-07-30T11:41:50.235Z,4.60
2022-07-30T11:42:50.277Z,4.50
2022-07-30T11:43:50.298Z,4.00
2022-07-30T11:45:22.258Z,4.90
2022-07-30T11:45:50.177Z,4.50
2022-07-30T11:46:50.251Z,4.40
2022-07-30T11:47:50.458Z,4.40
2022-07-30T11:48:50.246Z,4.60
2022-07-30T11:49:50.215Z,4.50
2022-07-30T11:50:50.185Z,4.50
2022-07-30T11:51:50.185Z,4.50
2022-07-30T11:52:50.184Z,4.50
2022-07-30T11:53:50.203Z,4.50
2022-07-30T11:54:50.285Z,4.60
2022-07-30T11:55:50.230Z,4.30
2022-07-30T11:56:50.313Z,4.40
2022-07-30T11:57:50.225Z,4.20
2022-07-30T11:58:50.283Z,4.50
2022-07-30T13:35:13.587Z,4.10
2022-07-30T13:36:14.855Z,3.60
2022-07-30T13:37:14.792Z,3.80
2022-07-30T13:38:14.830Z,3.90
2022-07-30T13:39:14.811Z,3.90
2022-07-30T13:40:14.863Z,3.70
2022-07-30T13:41:14.818Z,3.80
2022-07-30T13:42:14.734Z,4.00
2022-07-30T13:43:14.764Z,3.90
2022-07-30T13:44:14.852Z,3.80
2022-07-30T13:45:14.851Z,4.20
2022-07-30T13:46:14.751Z,3.90
2022-07-30T13:47:14.770Z,3.60
2022-07-30T13:48:14.866Z,4.10
2022-07-30T13:49:14.812Z,4.10
2022-07-30T13:50:14.775Z,3.70
2022-07-30T13:51:14.789Z,3.90
2022-07-30T13:52:14.763Z,4.10
2022-07-30T13:53:14.722Z,3.50
2022-07-30T13:54:14.798Z,3.70
2022-07-30T13:55:14.807Z,4.00
2022-07-30T13:56:15.534Z,3.80
2022-07-30T13:57:14.765Z,3.80
2022-07-30T13:58:14.762Z,4.00
2022-07-30T13:59:14.716Z,4.10
2022-07-30T14:00:14.866Z,4.10
2022-07-30T14:01:17.275Z,3.90
2022-07-30T14:02:14.675Z,3.90
2022-07-30T14:03:14.723Z,3.80
2022-07-30T14:04:14.700Z,3.80
2022-07-30T14:05:14.715Z,3.80
2022-07-30T14:06:14.791Z,4.10
2022-07-30T14:07:14.582Z,3.90
2022-07-30T14:08:14.572Z,4.30
2022-07-30T14:09:14.563Z,4.30
2022-07-30T14:10:14.532Z,4.20
2022-07-30T14:11:14.607Z,4.20
2022-07-30T14:12:14.635Z,4.00
2022-07-30T14:13:21.085Z,4.20
2022-07-30T14:14:15.609Z,4.10
2022-07-30T14:15:17.761Z,3.70
2022-07-30T14:16:42.558Z,3.90
2022-07-30T14:17:16.481Z,3.60
2022-07-30T14:18:14.526Z,3.70
2022-07-30T14:19:23.189Z,3.80
2022-07-30T14:20:15.486Z,3.70
2022-07-30T14:21:14.656Z,3.60
2022-07-30T14:22:15.443Z,3.80
2022-07-30T14:23:14.612Z,4.00
2022-07-30T14:24:14.490Z,3.90
2022-07-30T14:25:14.536Z,4.10
2022-07-30T14:26:14.441Z,3.60
2022-07-30T14:27:14.389Z,3.30
2022-07-30T14:28:14.424Z,3.70
2022-07-30T14:29:14.384Z,3.50
2022-07-30T14:30:14.384Z,3.70
2022-07-30T14:31:14.379Z,3.90
2022-07-30T14:32:14.371Z,3.90
2022-07-30T14:33:14.407Z,4.00
2022-07-30T14:34:14.324Z,4.10
2022-07-30T14:35:14.341Z,4.10
2022-07-30T14:36:14.373Z,3.90
2022-07-30T14:37:14.645Z,4.20
2022-07-30T14:38:14.312Z,3.90